Time;durP1;ratioP1;P1;durP2;ratioP2;P2;SDS_P1;SDS_P2;PMS_P1;PMS_P2;Temp;Humidity;BMP_temperature;BMP_pressure;BME280_temperature;BME280_humidity;BME280_pressure;Samples;Min_cycle;Max_cycle;Signal;HPM_P1;HPM_P2
2023/06/15 00:01:36;;;;;;;11.40;9.60;;;;;;;18.74;100.00;101856.50;5050585;28;20111;-72
2023/06/15 00:04:02;;;;;;;11.27;9.48;;;;;;;19.08;100.00;101943.94;5051055;28;20536;-72
2023/06/15 00:06:27;;;;;;;11.82;10.23;;;;;;;18.71;100.00;101887.53;5051581;28;20124;-72
2023/06/15 00:08:54;;;;;;;12.35;10.32;;;;;;;18.92;100.00;101911.78;5050375;28;20041;-73
2023/06/15 00:11:20;;;;;;;16.33;9.90;;;;;;;18.93;100.00;101921.22;5052121;28;20029;-72
2023/06/15 00:13:45;;;;;;;13.68;9.43;;;;;;;18.67;100.00;101847.28;5050880;28;20032;-72
2023/06/15 00:16:12;;;;;;;13.20;9.95;;;;;;;18.57;100.00;101868.22;5052398;28;20425;-72
2023/06/15 00:21:59;;;;;;;11.32;9.68;;;;;;;18.78;100.00;101834.03;5052391;28;20051;-72
2023/06/15 00:27:46;;;;;;;12.60;10.20;;;;;;;19.02;100.00;101880.53;5052267;28;20174;-72
2023/06/15 00:30:12;;;;;;;14.48;10.88;;;;;;;19.15;100.00;101893.03;5033284;28;20048;-72
2023/06/15 00:32:38;;;;;;;11.40;10.20;;;;;;;18.98;100.00;101891.81;5051784;28;20108;-72
2023/06/15 00:35:04;;;;;;;13.80;10.15;;;;;;;18.66;100.00;101848.16;5051500;28;20112;-72
2023/06/15 00:37:29;;;;;;;11.50;10.40;;;;;;;18.72;100.00;101853.13;5051389;28;20029;-72
2023/06/15 00:39:56;;;;;;;12.10;10.50;;;;;;;19.03;100.00;101913.13;5050398;28;20025;-72
2023/06/15 00:42:21;;;;;;;13.65;10.50;;;;;;;18.84;100.00;101895.72;5051652;28;20029;-72
2023/06/15 00:44:46;;;;;;;12.18;10.45;;;;;;;18.94;100.00;101944.38;5050590;28;20017;-72
2023/06/15 00:50:33;;;;;;;14.10;10.33;;;;;;;18.61;100.00;101917.06;5055789;28;20078;-72
2023/06/15 00:53:03;;;;;;;13.75;11.23;;;;;;;18.16;100.00;101821.31;5054282;28;20382;-72
2023/06/15 00:55:31;;;;;;;14.02;10.88;;;;;;;18.71;100.00;101899.56;5055785;28;20100;-72
2023/06/15 00:57:57;;;;;;;12.70;10.73;;;;;;;18.58;100.00;101880.22;5055725;28;20490;-73
2023/06/15 01:03:45;;;;;;;16.23;11.00;;;;;;;18.27;100.00;101831.31;5055668;28;20102;-73
2023/06/15 01:09:35;;;;;;;13.95;11.63;;;;;;;18.29;100.00;101872.47;5055845;28;20091;-72
2023/06/15 01:12:05;;;;;;;13.75;11.02;;;;;;;18.60;100.00;101893.91;5054910;28;20372;-72
2023/06/15 01:14:32;;;;;;;13.95;11.35;;;;;;;18.65;100.00;101902.34;5055349;28;20467;-73
2023/06/15 01:17:05;;;;;;;12.27;11.18;;;;;;;18.12;100.00;101826.63;5037121;28;20460;-72
2023/06/15 01:20:24;;;;;;;14.00;11.23;;;;;;;18.33;100.00;101846.59;5054087;28;20033;-72
2023/06/15 01:26:06;;;;;;;13.02;11.77;;;;;;;18.51;100.00;101866.69;5055380;28;20118;-72
2023/06/15 01:28:34;;;;;;;15.93;11.75;;;;;;;18.27;100.00;101863.94;5055212;28;20083;-72
2023/06/15 01:31:00;;;;;;;13.05;11.65;;;;;;;18.10;100.00;101776.91;5055021;28;20033;-72
2023/06/15 01:36:48;;;;;;;15.45;11.25;;;;;;;17.96;100.00;101774.75;5055176;28;20550;-74
2023/06/15 01:39:13;;;;;;;16.20;11.00;;;;;;;18.18;100.00;101824.69;5054119;28;20056;-72
2023/06/15 01:41:39;;;;;;;12.82;11.30;;;;;;;18.25;100.00;101833.09;5054531;28;20068;-72
2023/06/15 01:44:06;;;;;;;13.13;10.45;;;;;;;18.53;100.00;101851.16;5055141;28;20021;-72
2023/06/15 01:46:32;;;;;;;11.32;10.13;;;;;;;17.80;100.00;101765.78;5036577;28;20017;-72
2023/06/15 01:48:58;;;;;;;12.15;10.85;;;;;;;18.17;100.00;101811.88;5054363;28;20025;-72
2023/06/15 01:51:26;;;;;;;12.15;10.93;;;;;;;18.29;100.00;101811.50;5054830;28;20035;-73
2023/06/15 01:57:13;;;;;;;11.55;10.23;;;;;;;18.57;100.00;101863.91;5054953;28;20039;-72
2023/06/15 01:59:38;;;;;;;12.52;11.23;;;;;;;18.25;100.00;101814.22;5052420;28;20021;-72
2023/06/15 02:02:04;;;;;;;12.20;10.95;;;;;;;18.11;100.00;101799.19;5053953;28;20029;-72
2023/06/15 02:04:29;;;;;;;13.07;10.60;;;;;;;17.98;100.00;101791.00;5052309;28;20033;-72
2023/06/15 02:06:57;;;;;;;11.90;9.98;;;;;;;18.71;100.00;101861.75;5054613;28;20028;-73
2023/06/15 02:09:22;;;;;;;12.35;10.77;;;;;;;18.58;100.00;101888.78;5052982;28;20053;-72
2023/06/15 02:11:48;;;;;;;14.20;11.18;;;;;;;18.44;100.00;101865.16;5054212;28;20103;-72
2023/06/15 02:14:13;;;;;;;11.77;10.57;;;;;;;18.63;100.00;101868.88;5053660;28;20040;-72
2023/06/15 02:16:38;;;;;;;13.18;11.32;;;;;;;18.04;100.00;101782.25;5054106;28;20445;-71
2023/06/15 02:19:04;;;;;;;12.40;11.20;;;;;;;18.15;100.00;101808.50;5053165;28;20049;-72
2023/06/15 02:21:30;;;;;;;11.20;10.02;;;;;;;18.23;100.00;101809.13;5052703;28;20123;-72
2023/06/15 02:27:17;;;;;;;13.00;10.68;;;;;;;17.97;100.00;101784.16;5054235;28;20051;-74
2023/06/15 02:29:42;;;;;;;15.48;11.10;;;;;;;17.74;100.00;101791.69;5053796;28;20463;-72
2023/06/15 02:32:09;;;;;;;11.20;10.05;;;;;;;18.18;100.00;101829.84;5053549;28;20025;-72
2023/06/15 02:34:36;;;;;;;12.35;11.15;;;;;;;18.03;100.00;101811.44;5052523;28;20083;-72
2023/06/15 02:40:23;;;;;;;12.05;10.63;;;;;;;18.28;100.00;101848.47;5054039;28;20099;-72
2023/06/15 02:42:48;;;;;;;15.18;11.57;;;;;;;18.17;100.00;101864.22;5051753;28;20037;-72
2023/06/15 02:45:14;;;;;;;15.75;10.40;;;;;;;17.93;100.00;101846.03;5052619;28;20036;-72
2023/06/15 02:47:40;;;;;;;13.00;10.50;;;;;;;17.52;100.00;101776.88;5052220;28;20035;-73
2023/06/15 02:53:27;;;;;;;14.23;11.13;;;;;;;18.10;100.00;101861.88;5053708;28;20082;-72
2023/06/15 02:55:53;;;;;;;12.00;10.32;;;;;;;17.88;100.00;101806.75;5051317;28;20024;-73
2023/06/15 02:58:20;;;;;;;13.68;10.70;;;;;;;18.02;100.00;101854.38;5052375;28;20426;-73
2023/06/15 03:00:50;;;;;;;12.82;10.10;;;;;;;18.28;100.00;101871.66;5052866;28;20475;-73
2023/06/15 03:06:38;;;;;;;11.93;9.65;;;;;;;18.02;100.00;101823.50;5053421;28;20036;-72
2023/06/15 03:09:07;;;;;;;14.68;9.88;;;;;;;18.05;100.00;101833.69;5051873;28;20056;-72
2023/06/15 03:11:32;;;;;;;10.88;9.40;;;;;;;18.03;100.00;101814.00;5051468;28;20402;-75
2023/06/15 03:13:58;;;;;;;10.18;9.05;;;;;;;18.61;100.00;101891.28;5053500;28;20029;-72
2023/06/15 03:19:48;;;;;;;12.20;9.85;;;;;;;18.08;100.00;101776.13;5053376;28;20031;-72
2023/06/15 03:22:15;;;;;;;11.25;9.50;;;;;;;18.51;100.00;101864.09;5053177;28;20032;-74
2023/06/15 03:24:42;;;;;;;10.02;8.93;;;;;;;18.44;100.00;101848.88;5051616;28;20031;-72
2023/06/15 03:27:09;;;;;;;11.43;9.85;;;;;;;18.38;100.00;101813.78;5053002;28;20032;-72
2023/06/15 03:32:57;;;;;;;11.80;9.20;;;;;;;18.46;100.00;101790.44;5053177;28;20073;-71
2023/06/15 03:35:22;;;;;;;11.60;9.95;;;;;;;19.00;100.00;101853.09;5052326;28;20025;-72
2023/06/15 03:37:48;;;;;;;10.98;9.88;;;;;;;18.33;100.00;101813.09;5052378;28;20111;-71
2023/06/15 03:40:13;;;;;;;10.85;9.73;;;;;;;18.55;100.00;101819.31;5050454;28;20028;-70
2023/06/15 03:46:01;;;;;;;10.48;9.43;;;;;;;18.25;100.00;101768.72;5052447;28;20035;-71
2023/06/15 03:48:26;;;;;;;11.48;10.27;;;;;;;18.40;100.00;101765.66;5051618;28;20111;-72
2023/06/15 03:50:51;;;;;;;14.30;10.23;;;;;;;18.94;100.00;101871.34;5051308;28;20493;-73
2023/06/15 03:53:17;;;;;;;10.88;9.73;;;;;;;19.14;100.00;101855.22;5051785;28;20029;-72
2023/06/15 03:59:04;;;;;;;11.50;9.13;;;;;;;19.19;100.00;101835.28;5052891;28;20521;-72
2023/06/15 04:01:29;;;;;;;11.43;9.30;;;;;;;19.34;100.00;101838.22;5050274;28;20033;-72
2023/06/15 04:03:55;;;;;;;11.88;10.20;;;;;;;19.46;100.00;101836.94;5050383;28;20029;-73
2023/06/15 04:06:24;;;;;;;11.15;10.07;;;;;;;19.15;100.00;101798.44;5051909;28;20039;-73
2023/06/15 04:08:50;;;;;;;12.27;10.25;;;;;;;19.25;100.00;101793.81;5050787;28;20049;-73
2023/06/15 04:11:16;;;;;;;15.15;10.55;;;;;;;19.51;100.00;101850.56;5052231;28;20457;-72
2023/06/15 04:13:41;;;;;;;13.80;10.52;;;;;;;19.32;100.00;101788.38;5053749;28;20086;-73
2023/06/15 04:19:29;;;;;;;13.68;9.50;;;;;;;19.73;100.00;101792.09;5052721;28;20056;-70
2023/06/15 04:21:54;;;;;;;16.20;10.65;;;;;;;19.53;100.00;101786.81;5052538;28;20459;-71
2023/06/15 04:24:20;;;;;;;15.25;10.57;;;;;;;19.49;100.00;101793.00;5055261;28;20033;-70
2023/06/15 04:26:46;;;;;;;14.85;10.68;;;;;;;19.60;100.00;101827.00;5054359;28;20032;-72
2023/06/15 04:32:35;;;;;;;10.75;9.20;;;;;;;20.30;100.00;101839.00;5056232;28;20019;-73
2023/06/15 04:35:01;;;;;;;11.32;8.05;;;;;;;20.89;100.00;101872.88;5054141;28;20032;-69
2023/06/15 04:37:29;;;;;;;9.75;8.25;;;;;;;20.65;100.00;101835.91;5054395;28;20025;-70
2023/06/15 04:39:59;;;;;;;9.23;8.32;;;;;;;20.14;100.00;101793.97;5055611;28;20052;-72
2023/06/15 04:42:26;;;;;;;12.98;8.43;;;;;;;20.94;100.00;101873.53;5055701;28;20024;-73
2023/06/15 04:44:52;;;;;;;9.95;7.93;;;;;;;20.89;100.00;101848.75;5054192;28;20395;-71
2023/06/15 04:47:18;;;;;;;9.23;7.90;;;;;;;20.48;100.00;101796.13;5055587;28;20040;-73
2023/06/15 04:53:04;;;;;;;10.18;7.78;;;;;;;21.47;100.00;101827.34;5055694;28;20592;-72
2023/06/15 04:55:30;;;;;;;8.40;7.15;;;;;;;21.31;100.00;101847.03;5054907;28;20112;-72
2023/06/15 04:57:55;;;;;;;12.07;8.93;;;;;;;21.30;100.00;101809.09;5054098;28;20112;-72
2023/06/15 05:00:21;;;;;;;15.82;10.80;;;;;;;21.29;100.00;101844.47;5054878;28;20025;-73
2023/06/15 05:02:46;;;;;;;11.30;8.27;;;;;;;21.37;100.00;101811.34;5052942;28;20053;-73
2023/06/15 05:05:12;;;;;;;10.38;6.75;;;;;;;21.88;100.00;101841.94;5054836;28;20029;-72
2023/06/15 05:07:37;;;;;;;10.70;7.20;;;;;;;21.52;100.00;101796.91;5053578;28;20017;-72
2023/06/15 05:10:03;;;;;;;9.05;7.22;;;;;;;21.63;100.00;101814.56;5054997;28;20045;-72
2023/06/15 05:12:29;;;;;;;9.88;7.70;;;;;;;21.77;100.00;101773.34;5053758;28;20028;-72
2023/06/15 05:14:54;;;;;;;7.00;6.20;;;;;;;22.33;100.00;101811.28;5054905;28;20071;-72
2023/06/15 05:17:20;;;;;;;12.57;6.63;;;;;;;22.23;100.00;101736.63;5054591;28;20033;-72
2023/06/15 05:23:07;;;;;;;6.57;5.95;;;;;;;22.52;100.00;101697.19;5055312;28;20086;-72
2023/06/15 05:25:33;;;;;;;6.85;5.75;;;;;;;22.57;100.00;101721.16;5054284;28;20113;-71
2023/06/15 05:27:59;;;;;;;6.57;5.90;;;;;;;22.56;100.00;101659.78;5054720;28;20032;-72
2023/06/15 05:30:26;;;;;;;10.00;6.35;;;;;;;22.66;100.00;101692.13;5052908;28;20057;-71
2023/06/15 05:36:13;;;;;;;6.43;5.82;;;;;;;22.78;100.00;101646.59;5054965;28;20063;-71
2023/06/15 05:38:38;;;;;;;6.28;5.68;;;;;;;23.11;100.00;101679.41;5052689;28;20426;-71
2023/06/15 05:41:03;;;;;;;6.20;5.47;;;;;;;23.54;100.00;101653.75;5054442;28;20051;-71
2023/06/15 05:43:29;;;;;;;7.43;5.70;;;;;;;23.62;100.00;101634.25;5054393;28;20376;-71
2023/06/15 05:49:16;;;;;;;8.35;6.13;;;;;;;23.02;100.00;101516.38;5054699;28;20593;-73
2023/06/15 05:51:41;;;;;;;6.70;6.00;;;;;;;23.83;100.00;101539.47;5052074;28;20119;-70
2023/06/15 05:54:07;;;;;;;6.18;5.10;;;;;;;23.43;100.00;101516.72;5053883;28;20108;-71
2023/06/15 05:56:32;;;;;;;7.13;5.20;;;;;;;23.74;100.00;101487.22;5054345;28;20028;-71
2023/06/15 05:58:58;;;;;;;6.43;5.30;;;;;;;24.17;100.00;101486.38;5054119;28;20395;-73
2023/06/15 06:01:23;;;;;;;8.10;5.03;;;;;;;23.85;100.00;101451.88;5054080;28;20021;-73
2023/06/15 06:03:48;;;;;;;6.63;4.93;;;;;;;24.27;100.00;101408.66;5054322;28;20025;-73
2023/06/15 06:06:14;;;;;;;5.78;4.30;;;;;;;24.39;100.00;101387.09;5052493;28;20020;-73
2023/06/15 06:08:39;;;;;;;4.90;4.20;;;;;;;24.54;100.00;101371.34;5053436;28;20533;-71
2023/06/15 06:11:07;;;;;;;5.75;4.50;;;;;;;24.69;100.00;101310.53;5053770;28;20027;-72
2023/06/15 06:13:34;;;;;;;6.28;4.43;;;;;;;23.95;100.00;101207.88;5054381;28;20062;-72
2023/06/15 06:16:00;;;;;;;6.78;4.60;;;;;;;24.70;100.00;101238.53;5052439;28;20025;-72
2023/06/15 06:18:26;;;;;;;6.32;4.60;;;;;;;25.45;100.00;101256.00;5054234;28;20029;-72
2023/06/15 06:20:51;;;;;;;5.43;4.63;;;;;;;24.96;100.00;101146.50;5053480;28;20036;-72
2023/06/15 06:26:38;;;;;;;;;;;;;;;25.06;100.00;101118.09;5054599;28;20497;-71
2023/06/15 06:32:25;;;;;;;8.18;5.00;;;;;;;25.31;100.00;100959.16;5054125;28;20552;-71
2023/06/15 06:34:51;;;;;;;5.65;4.20;;;;;;;25.17;100.00;100925.50;5051739;28;20137;-73
2023/06/15 06:37:16;;;;;;;5.20;4.40;;;;;;;25.42;100.00;100934.03;5051915;28;20029;-72
2023/06/15 06:39:42;;;;;;;5.72;4.45;;;;;;;26.14;100.00;100929.44;5053509;28;20024;-72
2023/06/15 06:45:28;;;;;;;5.03;4.25;;;;;;;26.55;100.00;100778.28;5053664;28;20079;-71
2023/06/15 06:47:54;;;;;;;7.50;4.18;;;;;;;26.71;100.00;100713.47;5053143;28;20041;-71
2023/06/15 06:50:19;;;;;;;10.25;4.05;;;;;;;26.37;100.00;100644.13;5034846;28;20112;-70
2023/06/15 06:52:45;;;;;;;5.90;4.45;;;;;;;26.48;100.00;100644.88;5051908;28;20028;-71
2023/06/15 06:55:10;;;;;;;5.60;4.22;;;;;;;25.94;100.00;100596.44;5051184;28;20028;-71
2023/06/15 06:57:36;;;;;;;5.65;4.50;;;;;;;25.47;100.00;100569.03;5053283;28;20021;-71
2023/06/15 07:00:02;;;;;;;4.93;4.40;;;;;;;26.52;100.00;100569.81;5053002;28;20059;-72
2023/06/15 07:02:28;;;;;;;7.05;4.38;;;;;;;26.05;100.00;100446.00;5053203;28;20032;-71
2023/06/15 07:08:15;;;;;;;4.53;4.07;;;;;;;26.12;100.00;100361.13;5053084;28;20027;-73
2023/06/15 07:10:40;;;;;;;5.95;4.40;;;;;;;26.25;100.00;100351.28;5052916;28;20052;-70
2023/06/15 07:13:06;;;;;;;6.25;4.78;;;;;;;26.72;100.00;100289.72;5052844;28;20043;-70
2023/06/15 07:15:31;;;;;;;7.78;4.38;;;;;;;27.68;100.00;100299.97;5052620;28;20453;-71
2023/06/15 07:21:19;;;;;;;6.85;4.35;;;;;;;26.85;100.00;100213.75;5052667;28;20100;-70
2023/06/15 07:27:06;;;;;;;8.77;4.38;;;;;;;27.45;100.00;100180.16;5052394;28;20114;-73
2023/06/15 07:32:52;;;;;;;;;;;;;;;27.06;100.00;100189.09;5052655;28;20040;-72
2023/06/15 07:35:18;;;;;;;5.60;3.87;;;;;;;27.74;100.00;100172.16;5050532;28;19909;-74
2023/06/15 07:37:44;;;;;;;8.65;4.38;;;;;;;27.35;100.00;100236.03;5050507;28;20463;-73
2023/06/15 07:40:10;;;;;;;5.05;4.10;;;;;;;28.32;100.00;100284.25;5052300;28;20032;-71
2023/06/15 07:45:57;;;;;;;6.55;3.92;;;;;;;28.07;100.00;100989.38;5052607;28;20031;-70
2023/06/15 07:48:22;;;;;;;6.25;4.43;;;;;;;27.88;100.00;101339.66;5050486;28;20029;-71
2023/06/15 07:50:48;;;;;;;4.60;3.95;;;;;;;27.67;100.00;101521.75;5051844;28;20040;-71
2023/06/15 07:53:13;;;;;;;4.65;4.15;;;;;;;27.41;100.00;102101.31;5050689;28;20115;-71
2023/06/15 07:55:39;;;;;;;4.28;3.78;;;;;;;28.02;100.00;102956.47;5049723;28;20024;-71
2023/06/15 07:58:04;;;;;;;5.53;4.20;;;;;;;28.10;100.00;102854.81;5051381;28;20033;-71
2023/06/15 08:00:30;;;;;;;5.72;4.43;;;;;;;27.66;100.00;102830.19;5051962;28;20116;-71
2023/06/15 08:02:55;;;;;;;6.50;4.20;;;;;;;28.38;100.00;102835.81;5050228;28;20024;-71
2023/06/15 08:08:44;;;;;;;5.25;4.43;;;;;;;27.86;100.00;102304.97;5052080;28;20036;-72
2023/06/15 08:11:10;;;;;;;4.63;4.13;;;;;;;27.71;100.00;102177.75;5050897;28;20036;-71
2023/06/15 08:13:37;;;;;;;6.15;4.80;;;;;;;27.72;100.00;101982.47;5051858;28;20020;-71
2023/06/15 08:16:03;;;;;;;4.78;4.38;;;;;;;27.49;100.00;101842.00;5051697;28;20029;-71
2023/06/15 08:21:50;;;;;;;;;;;;;;;29.22;100.00;101385.53;5052220;28;20035;-72
2023/06/15 08:24:16;;;;;;;4.43;4.03;;;;;;;29.13;100.00;101491.91;5049921;28;19909;-71
2023/06/15 08:26:42;;;;;;;7.25;4.65;;;;;;;29.06;100.00;101742.28;5050479;28;20637;-71
2023/06/15 08:29:07;;;;;;;4.32;3.90;;;;;;;28.72;100.00;101682.97;5051961;28;20025;-71
2023/06/15 08:31:35;;;;;;;4.82;4.35;;;;;;;27.82;100.00;101695.81;5049786;28;20032;-71
2023/06/15 08:34:00;;;;;;;5.75;4.20;;;;;;;29.22;100.00;101768.22;5051593;28;20060;-72
2023/06/15 08:36:26;;;;;;;5.45;4.15;;;;;;;29.31;100.00;101784.06;5050141;28;20025;-72
2023/06/15 08:38:51;;;;;;;7.78;4.05;;;;;;;28.77;100.00;101621.44;5050548;28;20021;-72
2023/06/15 08:41:19;;;;;;;5.32;4.68;;;;;;;29.77;100.00;101584.56;5051072;28;20032;-72
2023/06/15 08:43:46;;;;;;;4.25;3.60;;;;;;;28.96;100.00;101387.66;5060405;28;20083;-71
2023/06/15 08:46:12;;;;;;;5.13;3.90;;;;;;;29.29;100.00;101533.47;5063947;28;20025;-71
2023/06/15 08:52:01;;;;;;;4.50;4.10;;;;;;;28.73;100.00;101483.81;5052097;28;20162;-71
2023/06/15 08:54:30;;;;;;;4.45;3.85;;;;;;;28.47;100.00;101465.84;5051798;28;20063;-71
2023/06/15 08:56:56;;;;;;;4.43;3.75;;;;;;;29.72;100.00;103053.44;5051584;28;20028;-71
2023/06/15 08:59:22;;;;;;;6.10;3.58;;;;;;;29.07;100.00;102865.81;5050126;28;20434;-71
2023/06/15 09:05:09;;;;;;;5.05;3.42;;;;;;;29.10;100.00;102286.28;5051657;28;20139;-71
2023/06/15 09:11:07;;;;;;;8.55;4.97;;;;;;;28.30;100.00;101961.88;5043464;28;20489;-69
2023/06/15 09:13:34;;;;;;;8.38;4.30;;;;;;;27.60;100.00;101923.16;5053719;28;20063;-69
2023/06/15 09:16:01;;;;;;;8.70;4.70;;;;;;;29.61;100.00;102040.53;5055052;28;20028;-69
2023/06/15 09:18:27;;;;;;;4.03;3.60;;;;;;;28.90;100.00;101860.53;5053341;28;20055;-69
2023/06/15 09:20:58;;;;;;;4.05;3.55;;;;;;;27.72;100.00;101702.66;5055616;28;20460;-72
2023/06/15 09:23:24;;;;;;;3.72;3.40;;;;;;;27.85;100.00;100404.59;5054892;28;20108;-73
2023/06/15 09:25:54;;;;;;;5.00;4.35;;;;;;;27.80;100.00;100385.09;5054493;28;20090;-72
2023/06/15 09:28:27;;;;;;;6.68;3.50;;;;;;;27.93;100.00;100254.88;5053873;28;20059;-72
2023/06/15 09:30:56;;;;;;;4.85;3.60;;;;;;;27.70;100.00;100232.69;5053547;28;20029;-72
2023/06/15 09:33:23;;;;;;;6.10;4.00;;;;;;;29.32;100.00;100091.66;5054702;28;20029;-74
2023/06/15 09:36:04;;;;;;;5.03;4.03;;;;;;;28.63;100.00;99990.59;5052801;28;20112;-72
2023/06/15 09:41:59;;;;;;;5.07;3.95;;;;;;;28.18;100.00;99948.97;5054769;28;20051;-71
2023/06/15 09:44:25;;;;;;;6.00;3.97;;;;;;;28.18;100.00;99904.50;5052922;28;20433;-71
2023/06/15 09:47:02;;;;;;;6.63;4.07;;;;;;;28.28;100.00;99818.88;5054579;28;20091;-70
2023/06/15 09:49:28;;;;;;;5.82;3.90;;;;;;;27.67;100.00;99919.38;5052906;28;20051;-72
2023/06/15 09:51:57;;;;;;;5.68;3.60;;;;;;;28.04;100.00;99907.72;5054418;28;20044;-72
2023/06/15 09:54:29;;;;;;;5.97;3.70;;;;;;;28.74;100.00;99862.00;5053912;28;20032;-71
2023/06/15 09:56:55;;;;;;;5.82;3.55;;;;;;;28.12;100.00;99844.16;5054370;28;20029;-73
2023/06/15 09:59:21;;;;;;;4.90;3.30;;;;;;;28.85;100.00;99737.81;5052903;28;20021;-71
2023/06/15 10:01:54;;;;;;;6.10;3.60;;;;;;;29.08;100.00;99702.91;5052942;28;20025;-72
2023/06/15 10:07:48;;;;;;;5.25;3.60;;;;;;;28.77;100.00;99673.22;5054217;28;20086;-74
2023/06/15 10:10:16;;;;;;;6.75;3.78;;;;;;;28.84;100.00;99673.38;5036022;28;20044;-71
2023/06/15 10:16:04;;;;;;;3.80;3.50;;;;;;;29.33;100.00;99579.72;5054425;28;20116;-72
2023/06/15 10:21:54;;;;;;;4.13;3.40;;;;;;;29.91;100.00;99338.78;5054073;28;20043;-71
2023/06/15 10:24:22;;;;;;;5.25;3.40;;;;;;;29.91;100.00;99220.78;5053294;28;20098;-71
2023/06/15 10:26:48;;;;;;;5.20;3.38;;;;;;;29.78;100.00;99250.25;5052386;28;20463;-72
2023/06/15 10:29:28;;;;;;;5.40;3.28;;;;;;;29.52;100.00;99152.09;5052025;28;20082;-71
2023/06/15 10:32:12;;;;;;;4.33;3.37;;;;;;;30.11;100.00;99169.31;5053390;28;20499;-71
2023/06/15 10:34:45;;;;;;;7.05;3.20;;;;;;;30.22;100.00;99291.31;5053461;28;20053;-71
2023/06/15 10:37:20;;;;;;;4.50;2.95;;;;;;;29.69;100.00;99536.25;5053766;28;20376;-71
2023/06/15 10:39:49;;;;;;;3.88;2.70;;;;;;;30.08;100.00;99593.81;5051814;28;20025;-72
2023/06/15 10:42:14;;;;;;;4.60;3.20;;;;;;;29.09;100.00;99599.81;5051748;28;20024;-72
2023/06/15 10:44:40;;;;;;;5.40;2.97;;;;;;;28.65;100.00;99645.75;5051528;28;20029;-72
2023/06/15 10:47:11;;;;;;;3.85;2.97;;;;;;;28.86;100.00;99757.81;5053020;28;20423;-72
2023/06/15 10:49:46;;;;;;;5.22;2.95;;;;;;;29.11;100.00;99693.91;5053123;28;20032;-72
2023/06/15 10:52:13;;;;;;;3.55;3.20;;;;;;;29.52;100.00;99708.53;5051839;28;20090;-72
2023/06/15 10:58:16;;;;;;;4.15;3.30;;;;;;;29.11;100.00;99629.25;5053308;28;20512;-72
2023/06/15 11:00:50;;;;;;;5.10;3.20;;;;;;;29.70;100.00;99643.56;5052954;28;20036;-72
2023/06/15 11:03:25;;;;;;;3.58;3.08;;;;;;;28.71;100.00;99621.50;5053376;28;20016;-72
2023/06/15 11:06:13;;;;;;;4.78;3.42;;;;;;;28.53;100.00;99617.41;5053046;28;20029;-73
2023/06/15 11:08:52;;;;;;;5.70;3.00;;;;;;;28.76;100.00;99628.88;5051354;28;20087;-73
2023/06/15 11:11:32;;;;;;;4.13;3.55;;;;;;;29.57;100.00;99596.16;5053121;28;20080;-73
2023/06/15 11:14:00;;;;;;;5.30;3.55;;;;;;;29.75;100.00;99654.38;5053003;28;20029;-73
2023/06/15 11:16:28;;;;;;;4.53;3.50;;;;;;;28.72;100.00;99615.28;5052845;28;20025;-73
2023/06/15 11:19:11;;;;;;;3.97;3.50;;;;;;;28.57;100.00;99653.59;5052442;28;20028;-72
2023/06/15 11:21:43;;;;;;;5.50;3.47;;;;;;;28.89;100.00;99684.16;5052079;28;20020;-73
2023/06/15 11:24:13;;;;;;;;;;;;;;;29.65;100.00;99674.72;5051757;28;20033;-73
2023/06/15 11:26:42;;;;;;;4.70;3.40;;;;;;;29.04;100.00;99567.22;5053136;28;20375;-72
2023/06/15 11:29:12;;;;;;;4.03;3.58;;;;;;;28.47;100.00;99577.03;5051105;28;20029;-72
2023/06/15 11:31:40;;;;;;;5.00;3.50;;;;;;;29.09;100.00;99667.06;5051641;28;20032;-72
2023/06/15 11:34:09;;;;;;;5.55;3.55;;;;;;;29.49;100.00;99682.69;5052602;28;20033;-73
2023/06/15 11:36:36;;;;;;;5.60;3.58;;;;;;;29.43;100.00;99678.13;5050877;28;20024;-73
2023/06/15 11:39:04;;;;;;;4.05;3.28;;;;;;;29.02;100.00;99690.50;5052834;28;20017;-73
2023/06/15 11:44:52;;;;;;;5.47;3.70;;;;;;;29.14;100.00;99706.69;5052249;28;20121;-73
2023/06/15 11:47:18;;;;;;;7.60;4.07;;;;;;;28.69;100.00;99667.16;5052136;28;20127;-73
2023/06/15 11:49:46;;;;;;;7.95;3.42;;;;;;;29.03;100.00;99710.47;5052288;28;20506;-73
2023/06/15 11:55:41;;;;;;;;;;;;;;;29.38;100.00;99742.47;5052851;28;20040;-73
2023/06/15 11:58:07;;;;;;;3.90;3.05;;;;;;;29.22;100.00;99649.03;5052136;28;19905;-74
2023/06/15 12:00:33;;;;;;;4.03;2.92;;;;;;;29.27;100.00;99707.00;5050553;28;20032;-73
2023/06/15 12:02:59;;;;;;;4.05;3.25;;;;;;;28.83;100.00;99737.16;5050612;28;20021;-73
2023/06/15 12:05:24;;;;;;;5.10;3.30;;;;;;;29.14;100.00;99729.47;5049988;28;20467;-73
2023/06/15 12:07:50;;;;;;;5.47;3.10;;;;;;;29.26;100.00;99730.75;5052171;28;20025;-73
2023/06/15 12:10:17;;;;;;;4.03;3.00;;;;;;;29.21;100.00;99780.19;5051826;28;20044;-73
2023/06/15 12:12:48;;;;;;;5.18;3.08;;;;;;;29.25;100.00;99766.59;5051901;28;20044;-73
2023/06/15 12:15:17;;;;;;;6.47;3.05;;;;;;;29.16;100.00;99735.38;5050514;28;20052;-73
2023/06/15 12:17:43;;;;;;;4.07;2.50;;;;;;;29.21;100.00;99798.53;5050232;28;20040;-72
2023/06/15 12:20:11;;;;;;;3.90;2.70;;;;;;;29.81;100.00;99811.00;5051565;28;20163;-74
2023/06/15 12:22:41;;;;;;;3.05;2.67;;;;;;;29.84;100.00;99779.22;5052145;28;20056;-73
2023/06/15 12:25:07;;;;;;;4.00;2.90;;;;;;;29.32;100.00;99780.66;5051898;28;20024;-73
2023/06/15 12:31:02;;;;;;;;;;;;;;;30.47;100.00;99863.03;5052400;28;20548;-73
2023/06/15 12:33:39;;;;;;;3.65;2.70;;;;;;;29.68;100.00;99828.25;5052161;28;19911;-73
2023/06/15 12:36:10;;;;;;;5.88;4.78;;;;;;;30.37;100.00;99883.44;5033708;28;20368;-74
2023/06/15 12:42:01;;;;;;;7.05;4.70;;;;;;;30.03;100.00;99872.41;5052619;28;20040;-73
2023/06/15 12:44:26;;;;;;;4.43;2.90;;;;;;;29.76;100.00;99888.56;5055178;28;20398;-73
2023/06/15 12:46:52;;;;;;;2.90;2.55;;;;;;;30.03;100.00;99889.97;5055515;28;20033;-73
2023/06/15 12:49:17;;;;;;;4.72;3.55;;;;;;;30.16;100.00;99887.59;5055513;28;20028;-73
2023/06/15 12:51:46;;;;;;;5.35;3.25;;;;;;;29.27;100.00;99879.94;5053825;28;20029;-72
2023/06/15 12:54:11;;;;;;;3.50;3.17;;;;;;;29.49;100.00;99841.72;5055284;28;20024;-73
2023/06/15 12:56:37;;;;;;;4.30;2.88;;;;;;;29.48;100.00;99892.50;5055898;28;20021;-72
2023/06/15 12:59:03;;;;;;;3.45;2.40;;;;;;;29.70;100.00;99878.69;5055265;28;20024;-72
2023/06/15 13:01:31;;;;;;;2.60;2.00;;;;;;;29.66;100.00;99831.03;5053634;28;20029;-72
2023/06/15 13:03:57;;;;;;;3.85;2.30;;;;;;;29.99;100.00;99891.28;5054715;28;20032;-73
2023/06/15 13:06:22;;;;;;;6.18;2.80;;;;;;;29.49;100.00;99855.66;5053728;28;20402;-73
2023/06/15 13:08:48;;;;;;;3.63;2.58;;;;;;;29.79;100.00;99901.34;5054513;28;20028;-73
2023/06/15 13:11:13;;;;;;;3.83;2.20;;;;;;;30.46;100.00;99895.56;5054330;28;20059;-73
2023/06/15 13:13:38;;;;;;;3.53;2.75;;;;;;;29.77;100.00;99887.59;5053258;28;20017;-71
2023/06/15 13:19:26;;;;;;;5.75;2.35;;;;;;;29.90;100.00;99872.94;5065494;28;20155;-73
2023/06/15 13:21:52;;;;;;;3.15;2.60;;;;;;;29.57;100.00;99839.91;5065977;28;20036;-72
2023/06/15 13:24:17;;;;;;;3.85;2.75;;;;;;;29.90;100.00;99875.56;5055309;28;20033;-72
2023/06/15 13:30:09;;;;;;;3.83;2.50;;;;;;;28.99;100.00;99891.66;5055066;28;20533;-72
2023/06/15 13:32:39;;;;;;;3.80;2.75;;;;;;;28.72;100.00;99871.03;5054624;28;20025;-73
2023/06/15 13:35:06;;;;;;;4.55;3.10;;;;;;;28.64;100.00;99845.66;5054851;28;20017;-73
2023/06/15 13:40:53;;;;;;;;;;;;;;;28.99;100.00;99871.53;5055257;28;20042;-73
2023/06/15 13:46:40;;;;;;;3.25;2.90;;;;;;;29.11;100.00;99862.38;5054431;28;20032;-73
2023/06/15 13:49:09;;;;;;;5.65;3.35;;;;;;;28.64;100.00;99871.81;5054193;28;20021;-72
2023/06/15 13:51:36;;;;;;;3.65;3.35;;;;;;;28.49;100.00;99826.28;5054458;28;20403;-73
2023/06/15 13:54:02;;;;;;;3.90;3.30;;;;;;;28.61;100.00;99860.84;5053419;28;20120;-74
2023/06/15 13:56:28;;;;;;;7.13;3.60;;;;;;;28.78;100.00;99849.44;5052915;28;20021;-73
2023/06/15 13:58:54;;;;;;;5.28;3.30;;;;;;;28.95;100.00;99878.09;5053354;28;20056;-73